Golden Bear — WQZ5884 — position and weather

sailwx.info

Track history (hours):
 
Tides and Currents Weather Stations Pressure Air Temp Water Temp Dewpoint Dewpoint Depression Visibility Wind Speed Wind Dir Waves Ship Positions

Golden Bear

Owner: BLUE & GOLD FLEET, SAN FRANCISCO, CA. More information available from US FCC via Universal Licensing System and Coast Guard Vessel Documentation Center.

Last reported at 2017-Nov-20 00:30 UTC. Time now 2017-Nov-24 11:29 UTC.
Position N 37°50' W 122°25'.

Length 29 m; draft 3 m.

Type: Passenger vessel. MMSI: 366976780.

Date/timePositionNaut miles runAvg speedWind from/ knotsBaromVisibWave heightAir tempDewpointWater temp
2017-Nov-20 00:30N 37°50' W 122°25'2 3.7
2017-Nov-20 00:00N 37°49' W 122°27'2 4.5
2017-Nov-19 23:30N 37°49' W 122°25'1 2.3
2017-Nov-19 23:00N 37°50' W 122°25'2 4.7
2017-Nov-19 22:30N 37°49' W 122°28'3 5.4
2017-Nov-19 22:00N 37°49' W 122°25'0 0.0
2017-Nov-19 21:30N 37°49' W 122°25'0 0.8
2017-Nov-19 21:00N 37°49' W 122°25'2 4.7
2017-Nov-19 20:30N 37°49' W 122°28'2 4.8
2017-Nov-19 20:00N 37°49' W 122°25'2 4.2
2017-Nov-19 19:30N 37°49' W 122°27'2 4.2
2017-Nov-19 19:00N 37°49' W 122°25'0 0.0
2017-Nov-19 01:15N 37°49' W 122°25'0 1.5
2017-Nov-19 01:01N 37°49' W 122°24'2 3.4
2017-Nov-19 00:30N 37°50' W 122°26'1 2.4
2017-Nov-19 00:01N 37°49' W 122°27'2 3.1
2017-Nov-18 23:30N 37°49' W 122°25'1 3.0
2017-Nov-18 23:00N 37°50' W 122°26'2 3.1
2017-Nov-18 22:30N 37°49' W 122°27'2 4.0
2017-Nov-18 22:00N 37°49' W 122°25'0 0.0
2017-Nov-18 21:31N 37°49' W 122°25'1 2.6
2017-Nov-18 21:01N 37°50' W 122°25'1 2.7
2017-Nov-18 20:30N 37°49' W 122°27'2 3.2
2017-Nov-18 20:00N 37°49' W 122°25'3 5.8
2017-Nov-18 19:31N 37°49' W 122°28'3 5.7
2017-Nov-18 19:00N 37°49' W 122°25'0 0.0
2017-Nov-18 18:30N 37°49' W 122°25'0 0.0
2017-Nov-18 01:25N 37°49' W 122°25'2 5.5
2017-Nov-18 01:00N 37°50' W 122°27'2 4.4
2017-Nov-18 00:30N 37°49' W 122°25'1 1.2
2017-Nov-18 00:00N 37°49' W 122°25'2 4.8
2017-Nov-17 23:30N 37°49' W 122°28'2 5.0
2017-Nov-17 23:00N 37°49' W 122°25'0 0.0
2017-Nov-17 22:30N 37°49' W 122°25'1 2.0
2017-Nov-17 22:00N 37°49' W 122°25'2 3.8
2017-Nov-17 21:30N 37°49' W 122°27'2 4.3
2017-Nov-17 21:00N 37°49' W 122°25'1 2.9
2017-Nov-17 20:30N 37°50' W 122°26'2 3.3
2017-Nov-17 20:00N 37°49' W 122°28'3 5.3
2017-Nov-17 19:30N 37°49' W 122°25'0 0.0
2017-Nov-17 19:00N 37°49' W 122°25'0 0.1
2017-Nov-17 18:30N 37°49' W 122°25'  
2017-Nov-12 01:11N 37°49' W 122°25'1 3.8
2017-Nov-12 01:01N 37°48' W 122°24'2 3.3
2017-Nov-12 00:30N 37°49' W 122°25'1 2.8
2017-Nov-12 00:00N 37°49' W 122°27'2 3.9
2017-Nov-11 23:30N 37°49' W 122°25'2 4.5
2017-Nov-11 23:00N 37°49' W 122°27'2 4.5
2017-Nov-11 22:30N 37°49' W 122°25'0 0.0
2017-Nov-10 03:48N 37°49' W 122°25'1 5.0
2017-Nov-10 03:30N 37°48' W 122°23'5 9.7
2017-Nov-10 03:00N 37°48' W 122°17'2 4.2
2017-Nov-10 02:31N 37°48' W 122°19'3 6.4
2017-Nov-10 02:00N 37°48' W 122°24'4 7.7
2017-Nov-10 01:30N 37°48' W 122°19'1 1.6
2017-Nov-10 01:00N 37°47' W 122°18'  
Track history (hours):
 
Tides and Currents Weather Stations Pressure Air Temp Water Temp Dewpoint Dewpoint Depression Visibility Wind Speed Wind Dir Waves Ship Positions

Golden Bear

Owner: BLUE & GOLD FLEET, SAN FRANCISCO, CA. More information available from US FCC via Universal Licensing System and Coast Guard Vessel Documentation Center.

Last reported at 2017-Nov-20 00:30 UTC. Time now 2017-Nov-24 11:29 UTC.
Position N 37°50' W 122°25'.

Length 29 m; draft 3 m.

Type: Passenger vessel. MMSI: 366976780.

Date/timePositionNaut miles runAvg speedWind from/ knotsBaromVisibWave heightAir tempDewpointWater temp
2017-Nov-20 00:30N 37°50' W 122°25'2 3.7
2017-Nov-20 00:00N 37°49' W 122°27'2 4.5
2017-Nov-19 23:30N 37°49' W 122°25'1 2.3
2017-Nov-19 23:00N 37°50' W 122°25'2 4.7
2017-Nov-19 22:30N 37°49' W 122°28'3 5.4
2017-Nov-19 22:00N 37°49' W 122°25'0 0.0
2017-Nov-19 21:30N 37°49' W 122°25'0 0.8
2017-Nov-19 21:00N 37°49' W 122°25'2 4.7
2017-Nov-19 20:30N 37°49' W 122°28'2 4.8
2017-Nov-19 20:00N 37°49' W 122°25'2 4.2
2017-Nov-19 19:30N 37°49' W 122°27'2 4.2
2017-Nov-19 19:00N 37°49' W 122°25'0 0.0
2017-Nov-19 01:15N 37°49' W 122°25'0 1.5
2017-Nov-19 01:01N 37°49' W 122°24'2 3.4
2017-Nov-19 00:30N 37°50' W 122°26'1 2.4
2017-Nov-19 00:01N 37°49' W 122°27'2 3.1
2017-Nov-18 23:30N 37°49' W 122°25'1 3.0
2017-Nov-18 23:00N 37°50' W 122°26'2 3.1
2017-Nov-18 22:30N 37°49' W 122°27'2 4.0
2017-Nov-18 22:00N 37°49' W 122°25'0 0.0
2017-Nov-18 21:31N 37°49' W 122°25'1 2.6
2017-Nov-18 21:01N 37°50' W 122°25'1 2.7
2017-Nov-18 20:30N 37°49' W 122°27'2 3.2
2017-Nov-18 20:00N 37°49' W 122°25'3 5.8
2017-Nov-18 19:31N 37°49' W 122°28'3 5.7
2017-Nov-18 19:00N 37°49' W 122°25'0 0.0
2017-Nov-18 18:30N 37°49' W 122°25'0 0.0
2017-Nov-18 01:25N 37°49' W 122°25'2 5.5
2017-Nov-18 01:00N 37°50' W 122°27'2 4.4
2017-Nov-18 00:30N 37°49' W 122°25'1 1.2
2017-Nov-18 00:00N 37°49' W 122°25'2 4.8
2017-Nov-17 23:30N 37°49' W 122°28'2 5.0
2017-Nov-17 23:00N 37°49' W 122°25'0 0.0
2017-Nov-17 22:30N 37°49' W 122°25'1 2.0
2017-Nov-17 22:00N 37°49' W 122°25'2 3.8
2017-Nov-17 21:30N 37°49' W 122°27'2 4.3
2017-Nov-17 21:00N 37°49' W 122°25'1 2.9
2017-Nov-17 20:30N 37°50' W 122°26'2 3.3
2017-Nov-17 20:00N 37°49' W 122°28'3 5.3
2017-Nov-17 19:30N 37°49' W 122°25'0 0.0
2017-Nov-17 19:00N 37°49' W 122°25'0 0.1
2017-Nov-17 18:30N 37°49' W 122°25'  
2017-Nov-12 01:11N 37°49' W 122°25'1 3.8
2017-Nov-12 01:01N 37°48' W 122°24'2 3.3
2017-Nov-12 00:30N 37°49' W 122°25'1 2.8
2017-Nov-12 00:00N 37°49' W 122°27'2 3.9
2017-Nov-11 23:30N 37°49' W 122°25'2 4.5
2017-Nov-11 23:00N 37°49' W 122°27'2 4.5
2017-Nov-11 22:30N 37°49' W 122°25'0 0.0
2017-Nov-10 03:48N 37°49' W 122°25'1 5.0
2017-Nov-10 03:30N 37°48' W 122°23'5 9.7
2017-Nov-10 03:00N 37°48' W 122°17'2 4.2
2017-Nov-10 02:31N 37°48' W 122°19'3 6.4
2017-Nov-10 02:00N 37°48' W 122°24'4 7.7
2017-Nov-10 01:30N 37°48' W 122°19'1 1.6
2017-Nov-10 01:00N 37°47' W 122°18'  

Dump ship's entire track history